Portada
METAR-TAF:

METAR-TAF

Aeroports :

Aeroport de la Ciutat de Londres

Londres, Anglaterra

latitud: 51-30N, longitud: 000-03E, altitud: 5 m

Observació

L'informe es va fer fa 20 minuts, a les 15:50 UTC
Vent 9 kt del Sud-Oest
Temperatura 11°C
Humitat 71%
Pressió 1013 hPa
Visibilitat 10 km o més
Cel ennuvolat a una alçada de 3000 ft

METAR: EGLC 071550Z AUTO 23009KT 9999 BKN030 11/06 Q1013

Hora: 16:10 (16:10 UTC)

Pronòstic

L'informe es va fer fa 8 hores i 14 minuts, a les 07:56 UTC
Pronòstic vàlid del 07 a les 09 UTC al 07 a les 18 UTC
Vent 8 kt del Oest/Sud-Oest
Visibilitat 10 km o més
Núvols disperses a una alçada de 3500 ft

TAF: EGLC 070756Z 0709/0718 24008KT 9999 SCT035

Observacions i pronòstics meteorològics de més de 4000 aeroports (METAR i TAF).

Les estacions disponibles són els punts grocs i vermells al mapa.

Posi el ratolí al punt desitjat per veure el nom de l'estació.

Feu clic per veure les observacions i els pronòstics meteorològics.

Per canviar el mapa: feu clic els botons verds amb una creu de color negre per apropar; al botó verd amb un guió per allunyar la imatge; o en les fletxes verdes per a mapes adjacents.


METAR-TAF: